Pinoso, Spain
Current Conditions -  °F | °C
As of 9:30 AM on Friday 19 Dec 2014 (Local Time) from LEAL Reporting Station
Clear Clear  
Wind Chill: 11°   Ceiling: Unl
Heat Index: 11°   Visibility: 6mi
Dew Point:   Wind: 5mph
Humidity: 82%   Direction: 250°WSW
Pressure: 30.36"   Gusts: NA
Location:  38.42°N, 1.03°W
Report Text: LEAL 190830Z 25004KT CAVOK 11/08 Q1028 NOSIG
Loading
Personal Weather Stations






























Interactive Weather Map New forecast layout! Learn more

10-Day Weather Forecast

Advertisements
Track Severe Weather on mobile